sensor_id;sensor_type;location;lat;lon;timestamp;pressure;altitude;pressure_sealevel;temperature;humidity
72110;BME280;59983;52.010;5.420;2022-09-14T00:01:12;100972.34;;;16.64;72.63
72110;BME280;59983;52.010;5.420;2022-09-14T00:04:06;100973.47;;;16.56;72.61
72110;BME280;59983;52.010;5.420;2022-09-14T00:06:33;100969.91;;;16.52;73.03
72110;BME280;59983;52.010;5.420;2022-09-14T00:09:00;100974.19;;;16.49;72.99
72110;BME280;59983;52.010;5.420;2022-09-14T00:11:29;100976.91;;;16.46;73.31
72110;BME280;59983;52.010;5.420;2022-09-14T00:13:58;100965.56;;;16.43;73.08
72110;BME280;59983;52.010;5.420;2022-09-14T00:16:27;100970.66;;;16.45;73.67
72110;BME280;59983;52.010;5.420;2022-09-14T00:18:57;100972.63;;;16.45;73.48
72110;BME280;59983;52.010;5.420;2022-09-14T00:21:27;100966.69;;;16.39;73.67
72110;BME280;59983;52.010;5.420;2022-09-14T00:23:54;100963.53;;;16.33;73.88
72110;BME280;59983;52.010;5.420;2022-09-14T00:26:22;100951.38;;;16.31;74.06
72110;BME280;59983;52.010;5.420;2022-09-14T00:28:54;100947.88;;;16.30;74.14
72110;BME280;59983;52.010;5.420;2022-09-14T00:31:21;100947.47;;;16.28;74.06
72110;BME280;59983;52.010;5.420;2022-09-14T00:33:49;100948.66;;;16.31;74.39
72110;BME280;59983;52.010;5.420;2022-09-14T00:36:22;100948.25;;;16.29;74.09
72110;BME280;59983;52.010;5.420;2022-09-14T00:38:49;100938.47;;;16.28;74.38
72110;BME280;59983;52.010;5.420;2022-09-14T00:41:22;100941.22;;;16.28;74.40
72110;BME280;59983;52.010;5.420;2022-09-14T00:46:39;100932.56;;;16.22;74.53
72110;BME280;59983;52.010;5.420;2022-09-14T00:49:28;100930.19;;;16.17;74.59
72110;BME280;59983;52.010;5.420;2022-09-14T00:52:15;100918.03;;;16.14;74.50
72110;BME280;59983;52.010;5.420;2022-09-14T00:54:49;100909.81;;;16.14;74.71
72110;BME280;59983;52.010;5.420;2022-09-14T00:57:17;100905.91;;;16.15;75.00
72110;BME280;59983;52.010;5.420;2022-09-14T00:59:47;100905.91;;;16.12;75.10
72110;BME280;59983;52.010;5.420;2022-09-14T01:02:15;100901.22;;;16.12;75.15
72110;BME280;59983;52.010;5.420;2022-09-14T01:04:42;100913.34;;;16.11;75.22
72110;BME280;59983;52.010;5.420;2022-09-14T01:15:45;100898.09;;;16.14;75.27
72110;BME280;59983;52.010;5.420;2022-09-14T01:20:54;100893.06;;;16.20;75.55
72110;BME280;59983;52.010;5.420;2022-09-14T01:26:18;100891.44;;;16.08;75.33
72110;BME280;59983;52.010;5.420;2022-09-14T01:29:04;100894.91;;;16.01;75.65
72110;BME280;59983;52.010;5.420;2022-09-14T01:34:18;100886.75;;;16.08;75.66
72110;BME280;59983;52.010;5.420;2022-09-14T01:36:53;100880.06;;;16.06;75.88
72110;BME280;59983;52.010;5.420;2022-09-14T01:39:22;100888.66;;;16.04;76.07
72110;BME280;59983;52.010;5.420;2022-09-14T01:41:49;100877.75;;;16.08;76.74
72110;BME280;59983;52.010;5.420;2022-09-14T01:44:21;100870.72;;;16.10;75.83
72110;BME280;59983;52.010;5.420;2022-09-14T01:47:06;100875.81;;;16.15;75.80
72110;BME280;59983;52.010;5.420;2022-09-14T01:49:41;100864.91;;;16.19;75.59
72110;BME280;59983;52.010;5.420;2022-09-14T01:52:21;100873.50;;;16.21;75.37
72110;BME280;59983;52.010;5.420;2022-09-14T01:55:32;100874.66;;;16.17;75.18
72110;BME280;59983;52.010;5.420;2022-09-14T01:57:52;100881.66;;;16.10;75.86
72110;BME280;59983;52.010;5.420;2022-09-14T02:00:21;100877.75;;;16.08;75.60
72110;BME280;59983;52.010;5.420;2022-09-14T02:02:49;100869.09;;;16.02;75.24
72110;BME280;59983;52.010;5.420;2022-09-14T02:07:49;100864.03;;;16.01;75.42
72110;BME280;59983;52.010;5.420;2022-09-14T02:10:16;100861.28;;;16.01;75.52
72110;BME280;59983;52.010;5.420;2022-09-14T02:12:43;100857.75;;;16.00;75.37
72110;BME280;59983;52.010;5.420;2022-09-14T02:15:11;100849.94;;;16.02;75.33
72110;BME280;59983;52.010;5.420;2022-09-14T02:17:39;100854.25;;;16.03;74.81
72110;BME280;59983;52.010;5.420;2022-09-14T02:20:10;100858.50;;;15.97;74.90
72110;BME280;59983;52.010;5.420;2022-09-14T02:22:39;100859.34;;;16.01;75.38
72110;BME280;59983;52.010;5.420;2022-09-14T02:25:05;100858.59;;;16.08;75.38
72110;BME280;59983;52.010;5.420;2022-09-14T02:27:32;100848.06;;;16.10;74.81
72110;BME280;59983;52.010;5.420;2022-09-14T02:29:58;100850.41;;;16.11;74.83
72110;BME280;59983;52.010;5.420;2022-09-14T02:32:39;100845.72;;;16.15;74.64
72110;BME280;59983;52.010;5.420;2022-09-14T02:38:18;100843.00;;;16.19;74.47
72110;BME280;59983;52.010;5.420;2022-09-14T02:40:54;100840.63;;;16.10;74.22
72110;BME280;59983;52.010;5.420;2022-09-14T02:43:53;100836.72;;;16.08;74.62
72110;BME280;59983;52.010;5.420;2022-09-14T02:46:32;100836.31;;;16.09;74.75
72110;BME280;59983;52.010;5.420;2022-09-14T02:54:43;100830.75;;;15.95;74.72
72110;BME280;59983;52.010;5.420;2022-09-14T02:57:11;100822.16;;;15.97;75.04
72110;BME280;59983;52.010;5.420;2022-09-14T02:59:38;100819.81;;;15.99;75.31
72110;BME280;59983;52.010;5.420;2022-09-14T03:02:04;100814.34;;;15.99;75.23
72110;BME280;59983;52.010;5.420;2022-09-14T03:04:31;100810.81;;;15.98;75.16
72110;BME280;59983;52.010;5.420;2022-09-14T03:06:57;100817.06;;;15.99;75.19
72110;BME280;59983;52.010;5.420;2022-09-14T03:09:24;100807.72;;;16.00;75.26
72110;BME280;59983;52.010;5.420;2022-09-14T03:11:50;100809.31;;;16.01;75.16
72110;BME280;59983;52.010;5.420;2022-09-14T03:14:16;100814.00;;;16.00;75.21
72110;BME280;59983;52.010;5.420;2022-09-14T03:16:43;100816.28;;;15.95;74.95
72110;BME280;59983;52.010;5.420;2022-09-14T03:19:09;100807.28;;;15.91;75.40
72110;BME280;59983;52.010;5.420;2022-09-14T03:21:38;100797.09;;;15.84;75.57
72110;BME280;59983;52.010;5.420;2022-09-14T03:24:05;100806.47;;;15.90;75.77
72110;BME280;59983;52.010;5.420;2022-09-14T03:26:31;100799.88;;;15.91;75.52
72110;BME280;59983;52.010;5.420;2022-09-14T03:29:02;100801.06;;;15.97;75.08
72110;BME280;59983;52.010;5.420;2022-09-14T03:31:30;100808.09;;;15.95;74.89
72110;BME280;59983;52.010;5.420;2022-09-14T03:33:58;100802.94;;;15.86;74.92
72110;BME280;59983;52.010;5.420;2022-09-14T03:36:28;100805.28;;;15.84;74.98
72110;BME280;59983;52.010;5.420;2022-09-14T03:38:56;100797.88;;;15.84;75.65
72110;BME280;59983;52.010;5.420;2022-09-14T03:41:23;100793.56;;;15.87;75.39
72110;BME280;59983;52.010;5.420;2022-09-14T03:43:50;100790.03;;;15.83;75.50
72110;BME280;59983;52.010;5.420;2022-09-14T03:46:19;100786.88;;;15.81;75.51
72110;BME280;59983;52.010;5.420;2022-09-14T03:48:48;100782.22;;;15.81;76.16
72110;BME280;59983;52.010;5.420;2022-09-14T03:51:16;100790.44;;;15.89;76.61
72110;BME280;59983;52.010;5.420;2022-09-14T03:53:43;100778.72;;;15.88;76.87
72110;BME280;59983;52.010;5.420;2022-09-14T03:56:16;100781.06;;;15.86;77.45
72110;BME280;59983;52.010;5.420;2022-09-14T03:58:44;100774.41;;;15.83;77.67
72110;BME280;59983;52.010;5.420;2022-09-14T04:01:13;100770.13;;;15.82;78.79
72110;BME280;59983;52.010;5.420;2022-09-14T04:03:41;100777.53;;;15.85;78.37
72110;BME280;59983;52.010;5.420;2022-09-14T04:06:08;100778.75;;;15.92;77.81
72110;BME280;59983;52.010;5.420;2022-09-14T04:08:36;100780.28;;;15.85;78.45
72110;BME280;59983;52.010;5.420;2022-09-14T04:11:07;100775.16;;;15.73;78.60
72110;BME280;59983;52.010;5.420;2022-09-14T04:13:34;100777.44;;;15.64;78.41
72110;BME280;59983;52.010;5.420;2022-09-14T04:16:01;100769.94;;;15.57;79.30
72110;BME280;59983;52.010;5.420;2022-09-14T04:18:28;100756.28;;;15.61;80.10
72110;BME280;59983;52.010;5.420;2022-09-14T04:21:01;100762.66;;;15.76;79.79
72110;BME280;59983;52.010;5.420;2022-09-14T04:23:33;100755.63;;;15.78;79.20
72110;BME280;59983;52.010;5.420;2022-09-14T04:26:17;100752.50;;;15.80;79.76
72110;BME280;59983;52.010;5.420;2022-09-14T04:28:44;100752.88;;;15.78;80.17
72110;BME280;59983;52.010;5.420;2022-09-14T04:31:12;100753.25;;;15.73;79.62
72110;BME280;59983;52.010;5.420;2022-09-14T04:33:40;100762.25;;;15.77;80.37
72110;BME280;59983;52.010;5.420;2022-09-14T04:36:15;100752.50;;;15.80;80.36
72110;BME280;59983;52.010;5.420;2022-09-14T04:38:43;100743.94;;;15.81;80.46
72110;BME280;59983;52.010;5.420;2022-09-14T04:41:16;100747.03;;;15.76;79.86
72110;BME280;59983;52.010;5.420;2022-09-14T04:43:44;100750.13;;;15.75;79.08
72110;BME280;59983;52.010;5.420;2022-09-14T04:46:15;100749.34;;;15.74;78.77
72110;BME280;59983;52.010;5.420;2022-09-14T04:48:43;100750.94;;;15.75;79.00
72110;BME280;59983;52.010;5.420;2022-09-14T04:51:13;100753.66;;;15.75;80.21
72110;BME280;59983;52.010;5.420;2022-09-14T04:53:42;100754.44;;;15.79;80.03
72110;BME280;59983;52.010;5.420;2022-09-14T04:56:11;100753.66;;;15.79;79.76
72110;BME280;59983;52.010;5.420;2022-09-14T04:58:42;100758.75;;;15.80;79.74
72110;BME280;59983;52.010;5.420;2022-09-14T05:01:18;100753.66;;;15.75;79.93
72110;BME280;59983;52.010;5.420;2022-09-14T05:03:45;100733.34;;;15.73;80.72
72110;BME280;59983;52.010;5.420;2022-09-14T05:06:20;100745.03;;;15.70;80.36
72110;BME280;59983;52.010;5.420;2022-09-14T05:08:48;100757.50;;;15.64;80.93
72110;BME280;59983;52.010;5.420;2022-09-14T05:11:18;100750.81;;;15.61;81.09
72110;BME280;59983;52.010;5.420;2022-09-14T05:13:45;100749.22;;;15.56;81.63
72110;BME280;59983;52.010;5.420;2022-09-14T05:16:19;100754.31;;;15.58;82.00
72110;BME280;59983;52.010;5.420;2022-09-14T05:18:47;100756.59;;;15.49;82.41
72110;BME280;59983;52.010;5.420;2022-09-14T05:21:16;100755.81;;;15.52;82.08
72110;BME280;59983;52.010;5.420;2022-09-14T05:23:43;100753.13;;;15.59;82.40
72110;BME280;59983;52.010;5.420;2022-09-14T05:26:10;100750.72;;;15.47;81.91
72110;BME280;59983;52.010;5.420;2022-09-14T05:28:37;100750.34;;;15.48;82.73
72110;BME280;59983;52.010;5.420;2022-09-14T05:31:05;100749.16;;;15.49;83.08
72110;BME280;59983;52.010;5.420;2022-09-14T05:33:33;100757.31;;;15.46;82.51
72110;BME280;59983;52.010;5.420;2022-09-14T05:36:01;100760.88;;;15.50;82.59
72110;BME280;59983;52.010;5.420;2022-09-14T05:38:29;100760.44;;;15.44;82.72
72110;BME280;59983;52.010;5.420;2022-09-14T05:40:56;100762.84;;;15.49;82.17
72110;BME280;59983;52.010;5.420;2022-09-14T05:43:23;100757.31;;;15.39;82.39
72110;BME280;59983;52.010;5.420;2022-09-14T05:45:50;100760.34;;;15.30;82.66
72110;BME280;59983;52.010;5.420;2022-09-14T05:48:17;100754.44;;;15.24;83.33
72110;BME280;59983;52.010;5.420;2022-09-14T05:50:43;100758.72;;;15.22;82.98
72110;BME280;59983;52.010;5.420;2022-09-14T05:53:10;100763.78;;;15.20;84.08
72110;BME280;59983;52.010;5.420;2022-09-14T05:55:36;100758.72;;;15.22;83.97
72110;BME280;59983;52.010;5.420;2022-09-14T05:58:03;100754.44;;;15.24;84.53
72110;BME280;59983;52.010;5.420;2022-09-14T06:00:31;100751.38;;;15.29;84.47
72110;BME280;59983;52.010;5.420;2022-09-14T06:02:57;100753.75;;;15.35;84.43
72110;BME280;59983;52.010;5.420;2022-09-14T06:05:24;100757.25;;;15.35;84.31
72110;BME280;59983;52.010;5.420;2022-09-14T06:07:51;100761.97;;;15.38;84.06
72110;BME280;59983;52.010;5.420;2022-09-14T06:10:18;100757.72;;;15.44;84.22
72110;BME280;59983;52.010;5.420;2022-09-14T06:12:45;100764.81;;;15.52;84.32
72110;BME280;59983;52.010;5.420;2022-09-14T06:15:12;100767.53;;;15.52;83.47
72110;BME280;59983;52.010;5.420;2022-09-14T06:17:38;100760.94;;;15.57;83.37
72110;BME280;59983;52.010;5.420;2022-09-14T06:20:05;100767.16;;;15.54;83.44
72110;BME280;59983;52.010;5.420;2022-09-14T06:22:33;100764.13;;;15.63;84.54
72110;BME280;59983;52.010;5.420;2022-09-14T06:24:59;100765.31;;;15.65;84.15
72110;BME280;59983;52.010;5.420;2022-09-14T06:27:26;100762.97;;;15.64;83.69
72110;BME280;59983;52.010;5.420;2022-09-14T06:29:52;100766.94;;;15.73;84.02
72110;BME280;59983;52.010;5.420;2022-09-14T06:32:20;100757.56;;;15.78;83.89
72110;BME280;59983;52.010;5.420;2022-09-14T06:34:48;100757.19;;;15.79;84.13
72110;BME280;59983;52.010;5.420;2022-09-14T06:37:15;100755.22;;;15.76;83.89
72110;BME280;59983;52.010;5.420;2022-09-14T06:39:41;100759.13;;;15.79;83.97
72110;BME280;59983;52.010;5.420;2022-09-14T06:42:08;100756.84;;;15.84;84.25
72110;BME280;59983;52.010;5.420;2022-09-14T06:44:34;100756.84;;;15.88;84.51
72110;BME280;59983;52.010;5.420;2022-09-14T06:47:00;100754.94;;;15.92;84.04
72110;BME280;59983;52.010;5.420;2022-09-14T06:49:27;100756.88;;;15.99;84.05
72110;BME280;59983;52.010;5.420;2022-09-14T06:51:54;100758.88;;;16.05;83.50
72110;BME280;59983;52.010;5.420;2022-09-14T06:54:23;100760.06;;;16.04;82.92
72110;BME280;59983;52.010;5.420;2022-09-14T06:56:50;100765.19;;;16.13;82.45
72110;BME280;59983;52.010;5.420;2022-09-14T06:59:16;100755.00;;;16.10;82.64
72110;BME280;59983;52.010;5.420;2022-09-14T07:01:44;100755.31;;;15.98;82.53
72110;BME280;59983;52.010;5.420;2022-09-14T07:04:11;100753.00;;;16.00;82.63
72110;BME280;59983;52.010;5.420;2022-09-14T07:06:43;100755.34;;;16.01;82.76
72110;BME280;59983;52.010;5.420;2022-09-14T07:09:10;100748.31;;;16.04;82.71
72110;BME280;59983;52.010;5.420;2022-09-14T07:11:37;100748.34;;;16.07;82.81
72110;BME280;59983;52.010;5.420;2022-09-14T07:14:05;100752.25;;;16.06;82.73
72110;BME280;59983;52.010;5.420;2022-09-14T07:16:33;100744.81;;;16.07;82.62
72110;BME280;59983;52.010;5.420;2022-09-14T07:19:02;100736.25;;;16.08;82.68
72110;BME280;59983;52.010;5.420;2022-09-14T07:21:30;100738.97;;;16.08;83.12
72110;BME280;59983;52.010;5.420;2022-09-14T07:23:57;100737.03;;;16.16;81.34
72110;BME280;59983;52.010;5.420;2022-09-14T07:26:29;100736.66;;;16.18;81.72
72110;BME280;59983;52.010;5.420;2022-09-14T07:28:59;100730.81;;;16.19;81.84
72110;BME280;59983;52.010;5.420;2022-09-14T07:31:28;100731.59;;;16.23;81.55
72110;BME280;59983;52.010;5.420;2022-09-14T07:33:58;100731.97;;;16.22;81.48
72110;BME280;59983;52.010;5.420;2022-09-14T07:36:25;100739.41;;;16.18;80.76
72110;BME280;59983;52.010;5.420;2022-09-14T07:38:57;100737.44;;;16.18;80.68
72110;BME280;59983;52.010;5.420;2022-09-14T07:41:26;100735.50;;;16.22;80.10
72110;BME280;59983;52.010;5.420;2022-09-14T07:43:57;100740.19;;;16.22;80.12
72110;BME280;59983;52.010;5.420;2022-09-14T07:46:27;100739.81;;;16.23;80.08
72110;BME280;59983;52.010;5.420;2022-09-14T07:48:56;100748.00;;;16.23;79.59
72110;BME280;59983;52.010;5.420;2022-09-14T07:51:24;100740.63;;;16.31;80.27
72110;BME280;59983;52.010;5.420;2022-09-14T07:53:51;100746.91;;;16.42;79.94
72110;BME280;59983;52.010;5.420;2022-09-14T07:56:18;100734.81;;;16.54;79.83
72110;BME280;59983;52.010;5.420;2022-09-14T07:58:44;100731.69;;;16.59;79.53
72110;BME280;59983;52.010;5.420;2022-09-14T08:01:13;100737.16;;;16.48;80.12
72110;BME280;59983;52.010;5.420;2022-09-14T08:03:41;100741.81;;;16.40;79.47
72110;BME280;59983;52.010;5.420;2022-09-14T08:08:41;100740.22;;;16.32;79.37
72110;BME280;59983;52.010;5.420;2022-09-14T08:11:19;100737.09;;;16.30;79.38
72110;BME280;59983;52.010;5.420;2022-09-14T08:14:07;100738.66;;;16.31;79.30
72110;BME280;59983;52.010;5.420;2022-09-14T08:16:37;100741.81;;;16.37;78.86
72110;BME280;59983;52.010;5.420;2022-09-14T08:19:11;100732.81;;;16.36;79.00
72110;BME280;59983;52.010;5.420;2022-09-14T08:21:38;100726.56;;;16.39;79.09
72110;BME280;59983;52.010;5.420;2022-09-14T08:24:14;100723.81;;;16.43;79.52
72110;BME280;59983;52.010;5.420;2022-09-14T08:26:41;100735.91;;;16.31;78.91
72110;BME280;59983;52.010;5.420;2022-09-14T08:29:08;100728.84;;;16.20;78.85
72110;BME280;59983;52.010;5.420;2022-09-14T08:31:36;100729.59;;;16.13;78.55
72110;BME280;59983;52.010;5.420;2022-09-14T08:34:04;100729.22;;;16.11;79.02
72110;BME280;59983;52.010;5.420;2022-09-14T08:36:36;100726.50;;;16.22;78.96
72110;BME280;59983;52.010;5.420;2022-09-14T08:39:05;100728.09;;;16.33;78.08
72110;BME280;59983;52.010;5.420;2022-09-14T08:41:39;100723.41;;;16.27;78.84
72110;BME280;59983;52.010;5.420;2022-09-14T08:44:26;100724.16;;;16.24;78.96
72110;BME280;59983;52.010;5.420;2022-09-14T08:46:58;100730.06;;;16.33;80.32
72110;BME280;59983;52.010;5.420;2022-09-14T08:49:36;100705.81;;;16.42;79.38
72110;BME280;59983;52.010;5.420;2022-09-14T08:52:04;100707.81;;;16.45;79.33
72110;BME280;59983;52.010;5.420;2022-09-14T08:54:34;100712.50;;;16.48;79.46
72110;BME280;59983;52.010;5.420;2022-09-14T08:57:10;100704.69;;;16.47;78.95
72110;BME280;59983;52.010;5.420;2022-09-14T09:10:52;100694.19;;;16.70;80.00
72110;BME280;59983;52.010;5.420;2022-09-14T09:13:22;100684.78;;;16.78;79.27
72110;BME280;59983;52.010;5.420;2022-09-14T09:15:54;100687.94;;;16.80;79.53
72110;BME280;59983;52.010;5.420;2022-09-14T09:20:56;100691.06;;;16.89;78.21
72110;BME280;59983;52.010;5.420;2022-09-14T09:23:27;100707.91;;;16.91;78.58
72110;BME280;59983;52.010;5.420;2022-09-14T09:26:16;100707.09;;;16.94;77.95
72110;BME280;59983;52.010;5.420;2022-09-14T09:28:49;100698.13;;;16.97;78.34
72110;BME280;59983;52.010;5.420;2022-09-14T09:31:18;100703.97;;;16.99;78.69
72110;BME280;59983;52.010;5.420;2022-09-14T09:33:48;100703.59;;;16.97;78.00
72110;BME280;59983;52.010;5.420;2022-09-14T09:36:16;100705.56;;;16.97;78.82
72110;BME280;59983;52.010;5.420;2022-09-14T09:38:42;100712.22;;;17.07;78.92
72110;BME280;59983;52.010;5.420;2022-09-14T09:43:58;100701.63;;;17.02;78.02
72110;BME280;59983;52.010;5.420;2022-09-14T09:46:30;100706.72;;;16.92;78.26
72110;BME280;59983;52.010;5.420;2022-09-14T09:48:58;100698.88;;;17.12;78.82
72110;BME280;59983;52.010;5.420;2022-09-14T09:51:32;100702.38;;;17.31;77.72
72110;BME280;59983;52.010;5.420;2022-09-14T09:54:07;100698.47;;;17.21;77.06
72110;BME280;59983;52.010;5.420;2022-09-14T09:56:59;100700.81;;;17.22;77.84
72110;BME280;59983;52.010;5.420;2022-09-14T09:59:34;100701.19;;;17.42;77.49
72110;BME280;59983;52.010;5.420;2022-09-14T10:07:55;100697.97;;;17.83;75.91
72110;BME280;59983;52.010;5.420;2022-09-14T10:10:38;100702.25;;;17.91;75.20
72110;BME280;59983;52.010;5.420;2022-09-14T10:13:14;100703.44;;;17.94;74.84
72110;BME280;59983;52.010;5.420;2022-09-14T10:15:45;100701.47;;;17.94;74.94
72110;BME280;59983;52.010;5.420;2022-09-14T10:23:30;100687.00;;;17.87;73.98
72110;BME280;59983;52.010;5.420;2022-09-14T10:33:41;100698.75;;;17.83;72.90
72110;BME280;59983;52.010;5.420;2022-09-14T10:36:37;100695.66;;;17.78;72.66
72110;BME280;59983;52.010;5.420;2022-09-14T10:39:15;100688.56;;;17.80;73.56
72110;BME280;59983;52.010;5.420;2022-09-14T10:47:44;100681.84;;;17.92;74.14
72110;BME280;59983;52.010;5.420;2022-09-14T10:50:47;100675.59;;;17.92;73.98
72110;BME280;59983;52.010;5.420;2022-09-14T10:55:58;100675.56;;;18.02;73.54
72110;BME280;59983;52.010;5.420;2022-09-14T11:01:13;100679.81;;;18.10;72.54
72110;BME280;59983;52.010;5.420;2022-09-14T11:12:43;100686.00;;;18.29;72.42
72110;BME280;59983;52.010;5.420;2022-09-14T11:15:35;100700.91;;;18.31;71.71
72110;BME280;59983;52.010;5.420;2022-09-14T11:18:58;100695.81;;;18.30;72.52
72110;BME280;59983;52.010;5.420;2022-09-14T11:23:47;100696.22;;;18.25;71.83
72110;BME280;59983;52.010;5.420;2022-09-14T11:26:39;100691.06;;;18.34;72.53
72110;BME280;59983;52.010;5.420;2022-09-14T11:32:36;100697.38;;;18.31;71.49
72110;BME280;59983;52.010;5.420;2022-09-14T11:38:04;100688.63;;;18.50;72.52
72110;BME280;59983;52.010;5.420;2022-09-14T11:40:36;100685.47;;;18.52;71.59
72110;BME280;59983;52.010;5.420;2022-09-14T11:43:17;100691.31;;;18.54;69.97
72110;BME280;59983;52.010;5.420;2022-09-14T11:45:54;100693.69;;;18.55;69.72
72110;BME280;59983;52.010;5.420;2022-09-14T11:48:29;100690.13;;;18.58;70.19
72110;BME280;59983;52.010;5.420;2022-09-14T11:52:28;100680.28;;;18.64;71.12
72110;BME280;59983;52.010;5.420;2022-09-14T11:54:22;100682.25;;;18.67;70.10
72110;BME280;59983;52.010;5.420;2022-09-14T11:56:59;100679.50;;;18.67;70.17
72110;BME280;59983;52.010;5.420;2022-09-14T12:15:34;100673.91;;;18.78;70.85
72110;BME280;59983;52.010;5.420;2022-09-14T12:25:33;100662.03;;;18.92;69.81
72110;BME280;59983;52.010;5.420;2022-09-14T12:28:26;100665.09;;;18.98;69.91
72110;BME280;59983;52.010;5.420;2022-09-14T12:35:57;100667.03;;;19.04;69.60
72110;BME280;59983;52.010;5.420;2022-09-14T12:46:29;100642.56;;;19.13;69.16
72110;BME280;59983;52.010;5.420;2022-09-14T12:49:01;100645.69;;;19.15;69.06
72110;BME280;59983;52.010;5.420;2022-09-14T12:56:47;100640.91;;;19.23;68.97
72110;BME280;59983;52.010;5.420;2022-09-14T13:03:39;100633.28;;;19.38;69.51
72110;BME280;59983;52.010;5.420;2022-09-14T13:05:44;100629.28;;;19.46;69.89
72110;BME280;59983;52.010;5.420;2022-09-14T13:08:11;100636.06;;;19.34;68.45
72110;BME280;59983;52.010;5.420;2022-09-14T13:10:46;100621.16;;;19.35;68.00
72110;BME280;59983;52.010;5.420;2022-09-14T13:13:20;100622.78;;;19.29;67.06
72110;BME280;59983;52.010;5.420;2022-09-14T13:15:57;100632.03;;;19.42;66.69
72110;BME280;59983;52.010;5.420;2022-09-14T13:18:34;100619.34;;;19.52;64.67
72110;BME280;59983;52.010;5.420;2022-09-14T13:21:15;100621.31;;;19.55;64.95
72110;BME280;59983;52.010;5.420;2022-09-14T13:23:43;100617.44;;;19.49;65.13
72110;BME280;59983;52.010;5.420;2022-09-14T13:28:36;100621.03;;;19.46;64.69
72110;BME280;59983;52.010;5.420;2022-09-14T13:31:03;100614.13;;;19.31;63.72
72110;BME280;59983;52.010;5.420;2022-09-14T13:33:30;100617.47;;;19.11;64.13
72110;BME280;59983;52.010;5.420;2022-09-14T13:35:59;100610.78;;;19.12;64.14
72110;BME280;59983;52.010;5.420;2022-09-14T13:38:32;100611.06;;;19.21;63.96
72110;BME280;59983;52.010;5.420;2022-09-14T13:41:09;100614.72;;;19.11;65.19
72110;BME280;59983;52.010;5.420;2022-09-14T13:43:36;100609.03;;;19.25;66.36
72110;BME280;59983;52.010;5.420;2022-09-14T13:46:04;100606.72;;;19.24;64.08
72110;BME280;59983;52.010;5.420;2022-09-14T13:48:35;100614.47;;;19.33;65.01
72110;BME280;59983;52.010;5.420;2022-09-14T13:51:03;100609.19;;;19.49;63.83
72110;BME280;59983;52.010;5.420;2022-09-14T13:53:42;100606.31;;;19.25;62.92
72110;BME280;59983;52.010;5.420;2022-09-14T13:56:19;100605.09;;;19.30;64.89
72110;BME280;59983;52.010;5.420;2022-09-14T13:58:49;100612.66;;;19.57;66.00
72110;BME280;59983;52.010;5.420;2022-09-14T14:01:26;100623.91;;;19.69;64.07
72110;BME280;59983;52.010;5.420;2022-09-14T14:03:53;100614.63;;;19.87;64.12
72110;BME280;59983;52.010;5.420;2022-09-14T14:06:27;100612.63;;;19.91;63.98
72110;BME280;59983;52.010;5.420;2022-09-14T14:14:18;100608.09;;;20.04;61.98
72110;BME280;59983;52.010;5.420;2022-09-14T14:19:54;100592.22;;;20.15;61.88
72110;BME280;59983;52.010;5.420;2022-09-14T14:22:31;100593.16;;;20.32;61.65
72110;BME280;59983;52.010;5.420;2022-09-14T14:24:59;100581.13;;;20.19;60.21
72110;BME280;59983;52.010;5.420;2022-09-14T14:27:43;100580.72;;;20.20;61.77
72110;BME280;59983;52.010;5.420;2022-09-14T14:30:19;100576.72;;;20.25;62.50
72110;BME280;59983;52.010;5.420;2022-09-14T14:32:52;100574.84;;;20.18;60.20
72110;BME280;59983;52.010;5.420;2022-09-14T14:35:23;100564.78;;;20.08;62.85
72110;BME280;59983;52.010;5.420;2022-09-14T14:37:50;100577.97;;;20.20;62.14
72110;BME280;59983;52.010;5.420;2022-09-14T14:40:17;100576.97;;;20.34;62.62
72110;BME280;59983;52.010;5.420;2022-09-14T14:42:45;100570.38;;;20.01;59.80
72110;BME280;59983;52.010;5.420;2022-09-14T14:45:14;100566.53;;;19.95;61.22
72110;BME280;59983;52.010;5.420;2022-09-14T14:47:48;100564.88;;;20.01;62.13
72110;BME280;59983;52.010;5.420;2022-09-14T14:50:26;100559.16;;;20.15;62.41
72110;BME280;59983;52.010;5.420;2022-09-14T14:52:53;100562.69;;;20.16;62.71
72110;BME280;59983;52.010;5.420;2022-09-14T14:55:21;100556.09;;;20.09;60.19
72110;BME280;59983;52.010;5.420;2022-09-14T14:57:49;100555.56;;;20.18;62.24
72110;BME280;59983;52.010;5.420;2022-09-14T15:00:21;100547.31;;;20.18;61.21
72110;BME280;59983;52.010;5.420;2022-09-14T15:02:48;100558.03;;;20.36;61.56
72110;BME280;59983;52.010;5.420;2022-09-14T15:05:15;100544.34;;;20.32;59.81
72110;BME280;59983;52.010;5.420;2022-09-14T15:07:42;100542.69;;;20.12;61.94
72110;BME280;59983;52.010;5.420;2022-09-14T15:10:13;100540.25;;;20.17;59.96
72110;BME280;59983;52.010;5.420;2022-09-14T15:12:40;100542.03;;;20.27;60.98
72110;BME280;59983;52.010;5.420;2022-09-14T15:15:15;100531.09;;;20.47;61.33
72110;BME280;59983;52.010;5.420;2022-09-14T15:17:42;100524.59;;;20.61;60.09
72110;BME280;59983;52.010;5.420;2022-09-14T15:20:10;100520.19;;;20.63;60.90
72110;BME280;59983;52.010;5.420;2022-09-14T15:22:38;100521.16;;;20.53;60.09
72110;BME280;59983;52.010;5.420;2022-09-14T15:25:07;100523.69;;;20.44;58.45
72110;BME280;59983;52.010;5.420;2022-09-14T15:27:33;100529.81;;;20.28;58.46
72110;BME280;59983;52.010;5.420;2022-09-14T15:30:00;100525.97;;;20.22;58.49
72110;BME280;59983;52.010;5.420;2022-09-14T15:32:28;100529.81;;;20.28;59.33
72110;BME280;59983;52.010;5.420;2022-09-14T15:34:54;100523.22;;;20.22;57.85
72110;BME280;59983;52.010;5.420;2022-09-14T15:37:21;100534.75;;;20.17;59.38
72110;BME280;59983;52.010;5.420;2022-09-14T15:39:47;100525.59;;;20.24;59.26
72110;BME280;59983;52.010;5.420;2022-09-14T15:42:16;100539.41;;;20.20;58.39
72110;BME280;59983;52.010;5.420;2022-09-14T15:44:43;100541.13;;;20.11;58.07